createdAt,value
2022-10-17T00:01:29.462Z,75.27
2022-10-17T00:03:56.095Z,76.53
2022-10-17T00:06:22.579Z,76.08
2022-10-17T00:08:49.045Z,76.62
2022-10-17T00:11:22.599Z,76.75
2022-10-17T00:13:50.707Z,76.33
2022-10-17T00:16:31.523Z,76.02
2022-10-17T00:18:58.320Z,75.13
2022-10-17T00:21:25.721Z,75.81
2022-10-17T00:23:52.744Z,75.71
2022-10-17T00:26:19.350Z,74.90
2022-10-17T00:28:47.654Z,75.26
2022-10-17T00:31:14.332Z,76.52
2022-10-17T00:33:40.817Z,76.34
2022-10-17T00:36:11.872Z,76.32
2022-10-17T00:38:38.361Z,76.13
2022-10-17T00:41:05.476Z,76.10
2022-10-17T00:43:57.898Z,75.03
2022-10-17T00:46:29.631Z,75.55
2022-10-17T00:48:57.389Z,75.84
2022-10-17T00:51:32.989Z,75.97
2022-10-17T00:54:00.197Z,75.69
2022-10-17T00:56:26.833Z,76.26
2022-10-17T00:58:53.658Z,76.37
2022-10-17T01:01:20.356Z,76.46
2022-10-17T01:03:46.862Z,76.24
2022-10-17T01:06:13.361Z,77.37
2022-10-17T01:08:40.097Z,77.21
2022-10-17T01:12:04.261Z,77.21
2022-10-17T01:14:39.876Z,76.80
2022-10-17T01:17:45.298Z,76.65
2022-10-17T01:20:32.810Z,76.29
2022-10-17T01:23:15.470Z,76.15
2022-10-17T01:26:00.335Z,77.35
2022-10-17T01:28:53.015Z,77.46
2022-10-17T01:31:22.739Z,77.13
2022-10-17T01:33:57.403Z,76.80
2022-10-17T01:36:51.359Z,77.30
2022-10-17T01:39:26.977Z,76.46
2022-10-17T01:42:08.158Z,75.69
2022-10-17T01:44:39.423Z,75.27
2022-10-17T01:47:09.666Z,75.42
2022-10-17T01:49:38.093Z,75.29
2022-10-17T01:52:09.161Z,75.35
2022-10-17T01:55:01.561Z,74.52
2022-10-17T01:57:35.094Z,74.36
2022-10-17T02:00:03.770Z,74.22
2022-10-17T02:02:31.399Z,74.79
2022-10-17T02:04:57.998Z,74.70
2022-10-17T02:07:24.532Z,74.43
2022-10-17T02:09:51.256Z,75.16
2022-10-17T02:12:48.929Z,75.26
2022-10-17T02:15:36.822Z,75.54
2022-10-17T02:18:25.400Z,76.54
2022-10-17T02:20:57.292Z,77.15
2022-10-17T02:23:31.470Z,78.37
2022-10-17T02:26:06.770Z,79.28
2022-10-17T02:29:04.262Z,79.01
2022-10-17T02:31:42.163Z,78.92
2022-10-17T02:34:38.287Z,79.75
2022-10-17T02:37:06.217Z,79.57
2022-10-17T02:39:33.716Z,78.95
2022-10-17T02:42:02.427Z,78.32
2022-10-17T02:44:29.852Z,77.49
2022-10-17T02:47:03.973Z,76.72
2022-10-17T02:49:34.516Z,76.46
2022-10-17T02:52:01.038Z,75.78
2022-10-17T02:54:48.055Z,75.51
2022-10-17T02:57:36.318Z,75.58
2022-10-17T03:00:05.281Z,75.10
2022-10-17T03:02:43.913Z,75.48
2022-10-17T03:05:12.489Z,76.41
2022-10-17T03:07:39.095Z,76.96
2022-10-17T03:10:06.241Z,77.03
2022-10-17T03:12:32.713Z,78.54
2022-10-17T03:15:00.859Z,78.89
2022-10-17T03:17:27.328Z,78.66
2022-10-17T03:19:54.130Z,78.67
2022-10-17T03:22:20.655Z,78.68
2022-10-17T03:24:47.191Z,77.53
2022-10-17T03:27:13.857Z,77.77
2022-10-17T03:29:40.510Z,77.02
2022-10-17T03:32:07.349Z,76.79
2022-10-17T03:34:34.260Z,77.49
2022-10-17T03:37:01.000Z,77.75
2022-10-17T03:39:27.834Z,76.65
2022-10-17T03:41:54.531Z,76.39
2022-10-17T03:44:21.109Z,76.32
2022-10-17T03:46:47.573Z,76.01
2022-10-17T03:49:14.098Z,76.74
2022-10-17T03:51:40.619Z,75.89
2022-10-17T03:54:07.245Z,74.93
2022-10-17T03:56:33.875Z,75.11
2022-10-17T03:59:00.562Z,74.54
2022-10-17T04:01:27.154Z,74.38
2022-10-17T04:03:58.958Z,74.29
2022-10-17T04:06:25.446Z,73.86
2022-10-17T04:08:53.878Z,74.76
2022-10-17T04:11:21.105Z,75.60
2022-10-17T04:13:53.569Z,74.90
2022-10-17T04:16:20.240Z,74.99
2022-10-17T04:18:47.040Z,75.07
2022-10-17T04:21:14.614Z,75.43
2022-10-17T04:23:41.161Z,74.71
2022-10-17T04:26:07.902Z,75.63
2022-10-17T04:28:34.740Z,75.87
2022-10-17T04:31:13.095Z,76.60
2022-10-17T04:33:39.974Z,77.52
2022-10-17T04:36:14.744Z,77.71
2022-10-17T04:38:41.529Z,77.30
2022-10-17T04:41:11.054Z,77.03
2022-10-17T04:43:38.319Z,77.14
2022-10-17T04:46:10.283Z,76.45
2022-10-17T04:48:37.785Z,77.09
2022-10-17T04:51:10.959Z,77.29
2022-10-17T04:53:38.797Z,76.96
2022-10-17T04:56:19.480Z,77.30
2022-10-17T04:58:46.979Z,76.63
2022-10-17T05:01:15.978Z,76.31
2022-10-17T05:03:42.940Z,75.11
2022-10-17T05:06:18.801Z,75.05
2022-10-17T05:08:46.107Z,75.24
2022-10-17T05:11:38.932Z,75.46
2022-10-17T05:14:05.443Z,74.80
2022-10-17T05:16:31.900Z,75.03
2022-10-17T05:18:59.300Z,75.29
2022-10-17T05:21:27.830Z,75.88
2022-10-17T05:23:54.910Z,75.84
2022-10-17T05:26:21.968Z,75.75
2022-10-17T05:28:48.518Z,76.16
2022-10-17T05:31:15.202Z,75.11
2022-10-17T05:33:41.655Z,75.62
2022-10-17T05:36:08.493Z,75.97
2022-10-17T05:38:35.203Z,76.36
2022-10-17T05:41:04.186Z,76.25
2022-10-17T05:43:31.681Z,76.38
2022-10-17T05:45:58.272Z,77.46
2022-10-17T05:48:24.805Z,78.03
2022-10-17T05:50:58.648Z,77.54
2022-10-17T05:53:25.121Z,77.08
2022-10-17T05:56:02.781Z,77.72
2022-10-17T05:58:49.215Z,76.86
2022-10-17T06:01:16.442Z,76.64
2022-10-17T06:03:42.962Z,75.81
2022-10-17T06:06:11.574Z,75.52
2022-10-17T06:08:38.036Z,74.64
2022-10-17T06:11:07.697Z,73.95
2022-10-17T06:13:37.535Z,73.76
2022-10-17T06:16:04.082Z,74.10
2022-10-17T06:18:30.677Z,73.97
2022-10-17T06:21:17.746Z,74.14
2022-10-17T06:23:44.273Z,74.06
2022-10-17T06:26:11.021Z,74.58
2022-10-17T06:28:37.613Z,75.48
2022-10-17T06:31:07.510Z,74.90
2022-10-17T06:33:34.708Z,73.69
2022-10-17T06:36:01.286Z,73.12
2022-10-17T06:38:27.776Z,73.34
2022-10-17T06:40:54.228Z,73.15
2022-10-17T06:43:25.599Z,72.74
2022-10-17T06:45:54.781Z,73.29
2022-10-17T06:48:21.395Z,73.54
2022-10-17T06:50:47.944Z,72.67
2022-10-17T06:53:14.677Z,73.02
2022-10-17T06:55:41.136Z,73.15
2022-10-17T06:58:07.725Z,72.57
2022-10-17T07:00:34.394Z,72.03
2022-10-17T07:03:01.064Z,71.89
2022-10-17T07:05:27.638Z,71.78
2022-10-17T07:07:54.155Z,71.74
2022-10-17T07:10:20.657Z,73.14
2022-10-17T07:12:47.124Z,72.56
2022-10-17T07:15:13.603Z,72.27
2022-10-17T07:17:40.146Z,72.03
2022-10-17T07:20:07.184Z,72.05
2022-10-17T07:22:33.868Z,71.06
2022-10-17T07:25:00.312Z,70.59
2022-10-17T07:27:26.978Z,70.43
2022-10-17T07:29:53.681Z,70.56
2022-10-17T07:32:20.191Z,70.18
2022-10-17T07:34:46.721Z,69.63
2022-10-17T07:37:13.425Z,69.58
2022-10-17T07:39:39.929Z,69.90
2022-10-17T07:42:06.455Z,70.31
2022-10-17T07:44:33.200Z,69.82
2022-10-17T07:46:59.714Z,69.59
2022-10-17T07:49:26.932Z,70.10
2022-10-17T07:51:53.511Z,69.76
2022-10-17T07:54:20.031Z,70.54
2022-10-17T07:56:46.482Z,69.53
2022-10-17T07:59:12.930Z,69.30
2022-10-17T08:01:39.833Z,68.31
2022-10-17T08:04:09.474Z,68.57
2022-10-17T08:06:35.991Z,67.90
2022-10-17T08:09:02.469Z,69.25
2022-10-17T08:11:28.948Z,68.22
2022-10-17T08:13:55.472Z,67.21
2022-10-17T08:16:22.108Z,67.77
2022-10-17T08:18:48.603Z,68.36
2022-10-17T08:21:15.143Z,68.03
2022-10-17T08:23:41.783Z,68.73
2022-10-17T08:26:09.011Z,69.52
2022-10-17T08:28:36.848Z,69.92
2022-10-17T08:31:12.071Z,70.22
2022-10-17T08:33:38.749Z,70.73
2022-10-17T08:36:06.110Z,70.51
2022-10-17T08:38:35.634Z,69.59
2022-10-17T08:41:31.745Z,70.93
2022-10-17T08:44:13.168Z,71.11
2022-10-17T08:46:41.993Z,70.58
2022-10-17T08:49:16.636Z,70.09
2022-10-17T08:51:49.857Z,71.36
2022-10-17T08:54:38.449Z,70.75
2022-10-17T08:57:05.004Z,71.49
2022-10-17T08:59:31.525Z,71.53
2022-10-17T09:02:12.293Z,71.99
2022-10-17T09:04:46.195Z,72.71
2022-10-17T09:07:19.282Z,72.36
2022-10-17T09:10:15.155Z,71.50
2022-10-17T09:12:53.277Z,72.18
2022-10-17T09:15:58.757Z,72.65
2022-10-17T09:18:38.776Z,71.96
2022-10-17T09:21:25.515Z,71.65
2022-10-17T09:23:59.689Z,70.83
2022-10-17T09:26:36.030Z,70.84
2022-10-17T09:29:02.759Z,71.29
2022-10-17T09:31:34.060Z,70.76
2022-10-17T09:34:02.337Z,70.13
2022-10-17T09:36:31.228Z,70.27
2022-10-17T09:39:04.338Z,69.10
2022-10-17T09:41:49.743Z,69.60
2022-10-17T09:44:16.310Z,68.36
2022-10-17T09:47:07.675Z,68.55
2022-10-17T09:49:40.243Z,69.19
2022-10-17T09:52:14.938Z,68.78
2022-10-17T09:55:03.287Z,68.97
2022-10-17T09:57:56.921Z,69.71
2022-10-17T10:00:38.934Z,67.93
2022-10-17T10:03:11.379Z,68.21
2022-10-17T10:05:38.189Z,67.02
2022-10-17T10:08:11.494Z,68.56
2022-10-17T10:10:38.991Z,66.76
2022-10-17T10:13:26.423Z,66.57
2022-10-17T10:15:53.358Z,66.60
2022-10-17T10:18:36.117Z,65.23
2022-10-17T10:21:15.285Z,63.73
2022-10-17T10:23:44.038Z,63.61
2022-10-17T10:26:22.611Z,61.86
2022-10-17T10:28:58.993Z,61.80
2022-10-17T10:31:31.594Z,62.46
2022-10-17T10:34:00.005Z,63.03
2022-10-17T10:36:26.617Z,63.58
2022-10-17T10:38:55.331Z,63.64
2022-10-17T10:41:21.808Z,64.36
2022-10-17T10:43:50.064Z,62.97
2022-10-17T10:46:27.743Z,62.64
2022-10-17T10:49:01.755Z,62.74
2022-10-17T10:51:35.535Z,62.23
2022-10-17T10:54:13.056Z,62.35
2022-10-17T10:56:43.595Z,60.40
2022-10-17T10:59:28.453Z,60.09
2022-10-17T11:02:00.062Z,60.38
2022-10-17T11:04:50.670Z,60.48
2022-10-17T11:07:22.594Z,60.82
2022-10-17T11:09:59.965Z,60.67
2022-10-17T11:12:42.598Z,61.44
2022-10-17T11:15:39.923Z,60.74
2022-10-17T11:18:30.414Z,59.74
2022-10-17T11:21:27.080Z,58.74
2022-10-17T11:24:05.645Z,58.21
2022-10-17T11:26:42.723Z,59.74
2022-10-17T11:29:11.142Z,60.44
2022-10-17T11:31:41.939Z,60.45
2022-10-17T11:34:24.153Z,60.29
2022-10-17T11:36:53.174Z,58.66
2022-10-17T11:39:42.189Z,58.47
2022-10-17T11:42:17.439Z,58.51
2022-10-17T11:44:44.334Z,58.04
2022-10-17T11:47:17.481Z,56.83
2022-10-17T11:51:59.642Z,56.22
2022-10-17T11:52:56.575Z,57.50
2022-10-17T11:55:26.506Z,55.72
2022-10-17T11:58:23.476Z,55.10
2022-10-17T12:00:52.827Z,55.15
2022-10-17T12:03:22.828Z,53.15
2022-10-17T12:05:55.913Z,52.87
2022-10-17T12:08:38.605Z,53.41
2022-10-17T12:11:15.354Z,52.13
2022-10-17T12:13:49.806Z,52.53
2022-10-17T12:16:19.345Z,52.45
2022-10-17T12:18:47.611Z,53.77
2022-10-17T12:21:14.407Z,52.74
2022-10-17T12:23:40.917Z,52.26
2022-10-17T12:26:09.671Z,51.62
2022-10-17T12:28:48.974Z,52.94
2022-10-17T12:31:18.466Z,53.10
2022-10-17T12:33:52.920Z,52.32
2022-10-17T12:36:19.302Z,53.18
2022-10-17T12:38:50.123Z,52.81
2022-10-17T12:41:17.614Z,52.82
2022-10-17T12:43:47.716Z,52.79
2022-10-17T12:46:42.919Z,52.24
2022-10-17T12:49:46.248Z,53.08
2022-10-17T12:52:31.974Z,52.45
2022-10-17T12:55:11.673Z,52.32
2022-10-17T12:57:42.131Z,51.98
2022-10-17T13:00:16.461Z,51.64
2022-10-17T13:02:43.111Z,52.54
2022-10-17T13:05:19.668Z,52.75
2022-10-17T13:07:48.562Z,51.93
2022-10-17T13:13:41.158Z,52.32
2022-10-17T13:16:07.893Z,52.04
2022-10-17T13:18:34.363Z,52.05
2022-10-17T13:21:04.255Z,52.22
2022-10-17T13:23:36.546Z,51.34
2022-10-17T13:26:10.484Z,50.95
2022-10-17T13:28:39.406Z,50.75
2022-10-17T13:31:07.361Z,51.80
2022-10-17T13:33:39.852Z,51.80
2022-10-17T13:36:08.121Z,51.33
2022-10-17T13:38:36.785Z,50.35
2022-10-17T13:41:34.389Z,48.40
2022-10-17T13:43:58.893Z,48.27
2022-10-17T13:46:39.359Z,49.16
2022-10-17T13:49:13.130Z,48.89
2022-10-17T13:51:43.620Z,49.55
2022-10-17T13:54:33.177Z,50.19
2022-10-17T13:56:59.798Z,49.08
2022-10-17T13:59:32.903Z,47.02
2022-10-17T14:02:00.863Z,48.71
2022-10-17T14:04:27.765Z,48.19
2022-10-17T14:06:57.498Z,48.20
2022-10-17T14:09:24.946Z,47.47
2022-10-17T14:12:10.638Z,46.26
2022-10-17T14:15:05.165Z,44.73
2022-10-17T14:17:27.939Z,46.57
2022-10-17T14:20:26.201Z,45.32
2022-10-17T14:22:54.414Z,46.01
2022-10-17T14:25:39.248Z,48.04
2022-10-17T14:28:11.678Z,47.06
2022-10-17T14:30:56.785Z,46.22
2022-10-17T14:33:27.482Z,46.08
2022-10-17T14:35:56.713Z,46.03
2022-10-17T14:38:23.602Z,45.62
2022-10-17T14:44:03.957Z,44.76
2022-10-17T14:46:30.794Z,44.83
2022-10-17T14:49:04.968Z,45.69
2022-10-17T14:51:40.069Z,46.51
2022-10-17T14:54:23.754Z,46.02
2022-10-17T14:56:52.184Z,44.81
2022-10-17T14:59:51.480Z,45.40
2022-10-17T15:02:09.474Z,45.83
2022-10-17T15:04:36.123Z,44.25
2022-10-17T15:07:03.592Z,44.25
2022-10-17T15:09:30.318Z,44.68
2022-10-17T15:12:04.059Z,45.44
2022-10-17T15:14:30.544Z,45.77
2022-10-17T15:16:57.019Z,44.86
2022-10-17T15:19:23.511Z,46.62
2022-10-17T15:21:49.987Z,45.91
2022-10-17T15:24:16.487Z,45.48
2022-10-17T15:26:43.069Z,46.42
2022-10-17T15:29:14.303Z,47.54
2022-10-17T15:31:40.779Z,47.69
2022-10-17T15:34:07.239Z,47.38
2022-10-17T15:36:37.271Z,47.68
2022-10-17T15:39:04.091Z,47.66
2022-10-17T15:41:32.157Z,47.93
2022-10-17T15:43:59.141Z,48.34
2022-10-17T15:46:28.899Z,49.04
2022-10-17T15:48:55.714Z,49.59
2022-10-17T15:51:22.600Z,50.13
2022-10-17T15:53:49.313Z,50.08
2022-10-17T15:56:26.973Z,49.44
2022-10-17T15:58:53.584Z,50.82
2022-10-17T16:01:22.514Z,50.65
2022-10-17T16:03:49.468Z,50.12
2022-10-17T16:06:17.073Z,50.02
2022-10-17T16:08:43.553Z,50.70
2022-10-17T16:11:31.911Z,52.58
2022-10-17T16:14:00.967Z,52.98
2022-10-17T16:16:27.728Z,53.77
2022-10-17T16:18:54.381Z,53.53
2022-10-17T16:21:24.497Z,53.01
2022-10-17T16:23:51.688Z,55.04
2022-10-17T16:26:18.439Z,56.10
2022-10-17T16:28:46.196Z,55.76
2022-10-17T16:31:21.945Z,56.38
2022-10-17T16:33:49.791Z,56.18
2022-10-17T16:36:16.876Z,57.06
2022-10-17T16:38:43.364Z,56.64
2022-10-17T16:41:22.042Z,58.09
2022-10-17T16:43:52.712Z,58.28
2022-10-17T16:46:19.457Z,57.99
2022-10-17T16:48:46.173Z,57.25
2022-10-17T16:51:14.364Z,57.51
2022-10-17T16:53:44.956Z,58.41
2022-10-17T16:56:13.127Z,58.83
2022-10-17T16:58:40.667Z,59.50
2022-10-17T17:01:09.930Z,58.95
2022-10-17T17:03:40.839Z,59.19
2022-10-17T17:06:08.538Z,60.84
2022-10-17T17:08:35.419Z,61.26
2022-10-17T17:11:01.927Z,60.87
2022-10-17T17:13:28.919Z,61.61
2022-10-17T17:16:15.357Z,61.21
2022-10-17T17:18:42.299Z,60.17
2022-10-17T17:21:10.466Z,61.35
2022-10-17T17:23:39.401Z,61.88
2022-10-17T17:26:18.007Z,62.17
2022-10-17T17:28:44.934Z,63.17
2022-10-17T17:31:14.898Z,63.48
2022-10-17T17:33:41.585Z,63.90
2022-10-17T17:36:08.921Z,63.32
2022-10-17T17:38:36.365Z,63.59
2022-10-17T17:41:03.563Z,64.15
2022-10-17T17:43:30.235Z,65.06
2022-10-17T17:45:57.081Z,64.83
2022-10-17T17:48:23.541Z,64.95
2022-10-17T17:50:50.046Z,65.19
2022-10-17T17:53:17.118Z,65.36
2022-10-17T17:55:46.599Z,64.94
2022-10-17T17:58:16.207Z,66.39
2022-10-17T18:00:45.635Z,66.02
2022-10-17T18:03:13.221Z,66.57
2022-10-17T18:05:40.179Z,66.20
2022-10-17T18:08:06.648Z,66.11
2022-10-17T18:10:33.204Z,66.49
2022-10-17T18:12:59.658Z,67.32
2022-10-17T18:15:26.534Z,67.53
2022-10-17T18:17:53.050Z,66.98
2022-10-17T18:20:19.536Z,66.79
2022-10-17T18:22:46.090Z,66.34
2022-10-17T18:25:12.583Z,66.90
2022-10-17T18:27:39.081Z,67.05
2022-10-17T18:30:06.247Z,67.63
2022-10-17T18:32:32.937Z,67.25
2022-10-17T18:35:16.000Z,66.17
2022-10-17T18:37:42.458Z,66.65
2022-10-17T18:40:09.567Z,66.85
2022-10-17T18:42:36.051Z,66.70
2022-10-17T18:45:02.611Z,66.98
2022-10-17T18:47:44.242Z,66.54
2022-10-17T18:50:10.755Z,67.33
2022-10-17T18:52:37.270Z,67.02
2022-10-17T18:55:04.034Z,67.35
2022-10-17T18:57:30.688Z,67.48
2022-10-17T18:59:57.264Z,68.33
2022-10-17T19:02:23.795Z,67.18
2022-10-17T19:04:50.353Z,67.53
2022-10-17T19:07:17.121Z,66.65
2022-10-17T19:09:43.668Z,66.94
2022-10-17T19:12:11.489Z,66.71
2022-10-17T19:14:38.279Z,66.97
2022-10-17T19:17:04.868Z,67.26
2022-10-17T19:19:31.785Z,67.91
2022-10-17T19:21:58.270Z,68.22
2022-10-17T19:24:26.708Z,67.56
2022-10-17T19:26:54.815Z,67.92
2022-10-17T19:29:26.489Z,68.22
2022-10-17T19:31:53.218Z,68.08
2022-10-17T19:34:19.751Z,67.54
2022-10-17T19:36:46.532Z,68.19
2022-10-17T19:39:20.771Z,69.29
2022-10-17T19:41:48.044Z,68.34
2022-10-17T19:44:15.541Z,70.27
2022-10-17T19:46:42.886Z,70.01
2022-10-17T19:49:10.239Z,71.13
2022-10-17T19:51:36.736Z,70.66
2022-10-17T19:54:03.528Z,70.55
2022-10-17T19:56:31.869Z,70.29
2022-10-17T19:58:59.207Z,70.04
2022-10-17T20:01:30.445Z,69.42
2022-10-17T20:03:57.385Z,70.35
2022-10-17T20:06:24.100Z,70.21
2022-10-17T20:08:51.280Z,69.58
2022-10-17T20:11:20.678Z,70.28
2022-10-17T20:13:47.696Z,70.23
2022-10-17T20:16:20.213Z,69.50
2022-10-17T20:18:47.041Z,69.40
2022-10-17T20:21:15.890Z,69.32
2022-10-17T20:23:42.802Z,69.30
2022-10-17T20:29:02.948Z,70.13
2022-10-17T20:31:29.708Z,71.38
2022-10-17T20:34:03.674Z,70.62
2022-10-17T20:36:32.935Z,70.12
2022-10-17T20:38:59.599Z,70.20
2022-10-17T20:41:26.378Z,70.13
2022-10-17T20:43:54.156Z,69.71
2022-10-17T20:46:35.891Z,70.15
2022-10-17T20:49:03.934Z,70.15
2022-10-17T20:51:33.949Z,70.63
2022-10-17T20:54:00.858Z,69.97
2022-10-17T20:56:29.268Z,69.87
2022-10-17T20:58:58.124Z,70.29
2022-10-17T21:01:27.155Z,71.11
2022-10-17T21:03:54.641Z,70.46
2022-10-17T21:06:22.382Z,70.41
2022-10-17T21:08:49.695Z,70.43
2022-10-17T21:11:21.685Z,70.55
2022-10-17T21:13:54.820Z,70.34
2022-10-17T21:16:21.616Z,71.03
2022-10-17T21:18:48.088Z,70.83
2022-10-17T21:21:23.055Z,70.34
2022-10-17T21:23:50.958Z,70.61
2022-10-17T21:26:18.258Z,70.65
2022-10-17T21:28:46.134Z,70.85
2022-10-17T21:34:20.385Z,71.25
2022-10-17T21:37:04.511Z,70.20
2022-10-17T21:39:31.267Z,70.33
2022-10-17T21:42:07.719Z,70.37
2022-10-17T21:44:34.412Z,69.83
2022-10-17T21:47:00.904Z,70.36
2022-10-17T21:49:27.427Z,69.81
2022-10-17T21:51:56.967Z,70.41
2022-10-17T21:54:23.829Z,70.45
2022-10-17T21:56:51.145Z,70.19
2022-10-17T21:59:17.808Z,71.02
2022-10-17T22:01:45.483Z,70.47
2022-10-17T22:04:14.897Z,70.34
2022-10-17T22:06:43.082Z,69.99
2022-10-17T22:09:14.335Z,70.04
2022-10-17T22:11:41.431Z,69.53
2022-10-17T22:14:11.910Z,69.86
2022-10-17T22:16:38.995Z,69.75
2022-10-17T22:19:07.002Z,69.21
2022-10-17T22:21:35.221Z,68.87
2022-10-17T22:24:07.933Z,69.68
2022-10-17T22:26:37.093Z,69.42
2022-10-17T22:29:07.273Z,69.72
2022-10-17T22:31:34.024Z,69.45
2022-10-17T22:34:00.778Z,70.02
2022-10-17T22:36:27.346Z,69.65
2022-10-17T22:38:53.897Z,69.36
2022-10-17T22:41:20.670Z,69.04
2022-10-17T22:43:47.207Z,68.97
2022-10-17T22:46:14.556Z,69.18
2022-10-17T22:48:41.073Z,69.33
2022-10-17T22:51:10.138Z,68.38
2022-10-17T22:53:36.724Z,69.51
2022-10-17T22:56:06.949Z,69.31
2022-10-17T22:58:34.314Z,68.54
2022-10-17T23:01:01.607Z,68.97
2022-10-17T23:03:29.281Z,68.51
2022-10-17T23:05:55.743Z,67.52
2022-10-17T23:08:22.534Z,67.42
2022-10-17T23:10:49.229Z,67.44
2022-10-17T23:13:18.987Z,66.77
2022-10-17T23:15:45.513Z,66.71
2022-10-17T23:18:12.128Z,67.07
2022-10-17T23:20:38.702Z,67.75
2022-10-17T23:23:05.468Z,68.04
2022-10-17T23:25:34.100Z,67.84
2022-10-17T23:28:00.968Z,67.79
2022-10-17T23:30:27.567Z,67.87
2022-10-17T23:32:54.090Z,67.33
2022-10-17T23:35:20.604Z,67.59
2022-10-17T23:37:47.072Z,67.06
2022-10-17T23:40:13.592Z,67.26
2022-10-17T23:42:40.238Z,67.64
2022-10-17T23:45:07.480Z,67.62
2022-10-17T23:47:34.281Z,67.81
2022-10-17T23:50:00.880Z,67.50
2022-10-17T23:52:27.371Z,67.72
2022-10-17T23:54:53.892Z,67.87
2022-10-17T23:57:20.492Z,66.94
2022-10-17T23:59:47.101Z,66.95
